createdAt,value
2022-10-08T00:02:33.885Z,8.03
2022-10-08T00:05:42.197Z,7.99
2022-10-08T00:08:49.489Z,7.96
2022-10-08T00:11:57.347Z,7.90
2022-10-08T00:15:05.309Z,7.89
2022-10-08T00:18:12.651Z,7.85
2022-10-08T00:21:20.460Z,7.78
2022-10-08T00:24:27.902Z,7.82
2022-10-08T00:27:36.081Z,7.87
2022-10-08T00:30:44.371Z,7.79
2022-10-08T00:33:51.887Z,7.81
2022-10-08T00:37:00.194Z,7.78
2022-10-08T00:40:08.775Z,7.72
2022-10-08T00:43:21.706Z,7.71
2022-10-08T00:46:21.143Z,7.67
2022-10-08T00:49:28.815Z,7.67
2022-10-08T00:52:36.342Z,7.69
2022-10-08T00:55:44.288Z,7.69
2022-10-08T00:58:51.811Z,7.63
2022-10-08T01:01:59.313Z,7.58
2022-10-08T01:05:07.180Z,7.55
2022-10-08T01:08:15.010Z,7.49
2022-10-08T01:11:22.589Z,7.49
2022-10-08T01:14:30.354Z,7.47
2022-10-08T01:17:38.084Z,7.44
2022-10-08T01:20:45.924Z,7.45
2022-10-08T01:23:53.665Z,7.50
2022-10-08T01:27:01.196Z,7.49
2022-10-08T01:30:08.990Z,7.42
2022-10-08T01:33:16.635Z,7.47
2022-10-08T01:36:24.306Z,7.55
2022-10-08T01:39:31.711Z,7.62
2022-10-08T01:42:39.737Z,7.77
2022-10-08T01:45:47.416Z,7.82
2022-10-08T01:48:55.071Z,7.90
2022-10-08T01:52:03.052Z,8.02
2022-10-08T01:55:10.323Z,8.20
2022-10-08T01:58:17.894Z,8.26
2022-10-08T02:01:25.937Z,8.36
2022-10-08T02:04:33.306Z,8.37
2022-10-08T02:07:41.314Z,8.40
2022-10-08T02:10:49.100Z,8.44
2022-10-08T02:13:56.300Z,8.44
2022-10-08T02:17:04.220Z,8.48
2022-10-08T02:20:11.704Z,8.53
2022-10-08T02:23:18.842Z,8.69
2022-10-08T02:26:26.316Z,8.72
2022-10-08T02:29:34.094Z,8.78
2022-10-08T02:32:41.252Z,8.68
2022-10-08T02:35:49.024Z,8.62
2022-10-08T02:38:56.179Z,8.51
2022-10-08T02:42:04.225Z,8.39
2022-10-08T02:45:11.985Z,8.35
2022-10-08T02:48:19.191Z,8.35
2022-10-08T02:51:27.097Z,8.36
2022-10-08T02:54:35.230Z,8.39
2022-10-08T02:57:42.327Z,8.39
2022-10-08T03:00:50.033Z,8.29
2022-10-08T03:03:58.142Z,8.28
2022-10-08T03:07:05.414Z,8.22
2022-10-08T03:10:13.207Z,8.18
2022-10-08T03:13:20.734Z,8.17
2022-10-08T03:16:28.509Z,8.18
2022-10-08T03:19:36.639Z,8.22
2022-10-08T03:22:44.259Z,8.29
2022-10-08T03:25:52.125Z,8.28
2022-10-08T03:28:59.932Z,8.30
2022-10-08T03:32:07.523Z,8.40
2022-10-08T03:35:15.349Z,8.42
2022-10-08T03:38:23.474Z,8.37
2022-10-08T03:41:30.682Z,8.42
2022-10-08T03:44:38.653Z,8.40
2022-10-08T03:47:46.129Z,8.42
2022-10-08T03:50:53.785Z,8.37
2022-10-08T03:54:01.372Z,8.40
2022-10-08T03:57:08.872Z,8.42
2022-10-08T04:00:16.103Z,8.36
2022-10-08T04:03:24.082Z,8.33
2022-10-08T04:06:31.850Z,8.37
2022-10-08T04:09:39.468Z,8.35
2022-10-08T04:12:47.207Z,8.37
2022-10-08T04:15:55.234Z,8.35
2022-10-08T04:19:02.733Z,8.33
2022-10-08T04:22:10.251Z,8.33
2022-10-08T04:25:18.095Z,8.35
2022-10-08T04:28:25.844Z,8.48
2022-10-08T04:31:33.406Z,8.55
2022-10-08T04:34:40.956Z,8.65
2022-10-08T04:37:48.200Z,8.75
2022-10-08T04:40:56.318Z,8.79
2022-10-08T04:44:04.039Z,8.87
2022-10-08T04:47:11.459Z,9.04
2022-10-08T04:50:19.550Z,9.20
2022-10-08T04:53:27.300Z,9.30
2022-10-08T04:56:35.334Z,9.35
2022-10-08T05:00:05.759Z,9.42
2022-10-08T05:02:47.789Z,9.45
2022-10-08T05:05:55.774Z,9.50
2022-10-08T05:09:03.805Z,9.63
2022-10-08T05:12:10.945Z,9.76
2022-10-08T05:15:18.685Z,9.83
2022-10-08T05:18:26.118Z,10.00
2022-10-08T05:21:33.586Z,10.10
2022-10-08T05:24:41.498Z,10.26
2022-10-08T05:27:48.969Z,10.44
2022-10-08T05:30:56.383Z,10.65
2022-10-08T05:34:04.120Z,10.80
2022-10-08T05:37:11.590Z,10.95
2022-10-08T05:40:19.202Z,11.03
2022-10-08T05:43:27.352Z,11.14
2022-10-08T05:46:34.986Z,11.19
2022-10-08T05:49:42.790Z,11.27
2022-10-08T05:52:50.558Z,11.34
2022-10-08T05:55:58.064Z,11.39
2022-10-08T05:59:06.095Z,11.49
2022-10-08T06:02:13.560Z,11.54
2022-10-08T06:05:21.118Z,11.61
2022-10-08T06:08:28.729Z,11.68
2022-10-08T06:11:36.351Z,11.77
2022-10-08T06:14:43.661Z,11.87
2022-10-08T06:17:51.091Z,11.96
2022-10-08T06:20:58.951Z,12.04
2022-10-08T06:24:06.508Z,12.06
2022-10-08T06:27:13.935Z,12.05
2022-10-08T06:30:21.720Z,12.08
2022-10-08T06:33:28.954Z,12.08
2022-10-08T06:36:36.937Z,12.05
2022-10-08T06:39:48.409Z,12.02
2022-10-08T06:42:45.523Z,12.02
2022-10-08T06:45:54.106Z,12.01
2022-10-08T06:49:01.867Z,11.93
2022-10-08T06:52:09.067Z,11.86
2022-10-08T06:55:17.022Z,11.77
2022-10-08T06:58:24.398Z,11.71
2022-10-08T07:01:33.888Z,11.67
2022-10-08T07:04:41.829Z,11.64
2022-10-08T07:07:49.151Z,11.61
2022-10-08T07:10:56.792Z,11.62
2022-10-08T07:14:04.601Z,11.62
2022-10-08T07:17:12.075Z,11.61
2022-10-08T07:20:19.274Z,11.52
2022-10-08T07:23:26.473Z,11.43
2022-10-08T07:26:34.483Z,11.36
2022-10-08T07:29:42.225Z,11.36
2022-10-08T07:32:49.861Z,11.38
2022-10-08T07:35:57.958Z,11.38
2022-10-08T07:39:05.340Z,11.46
2022-10-08T07:42:13.028Z,11.53
2022-10-08T07:45:20.756Z,11.57
2022-10-08T07:48:32.982Z,11.61
2022-10-08T07:51:31.454Z,11.67
2022-10-08T07:54:39.273Z,11.74
2022-10-08T07:57:46.309Z,11.78
2022-10-08T08:00:54.137Z,11.82
2022-10-08T08:04:01.878Z,11.87
2022-10-08T08:07:08.995Z,12.02
2022-10-08T08:10:16.855Z,12.11
2022-10-08T08:13:24.357Z,12.16
2022-10-08T08:16:32.002Z,12.23
2022-10-08T08:19:39.668Z,12.26
2022-10-08T08:22:47.555Z,12.31
2022-10-08T08:25:55.745Z,12.33
2022-10-08T08:29:03.540Z,12.48
2022-10-08T08:32:10.600Z,12.51
2022-10-08T08:35:18.112Z,12.52
2022-10-08T08:38:25.772Z,12.60
2022-10-08T08:41:34.165Z,12.71
2022-10-08T08:44:42.100Z,12.79
2022-10-08T08:47:49.614Z,12.89
2022-10-08T08:50:57.587Z,12.89
2022-10-08T08:54:06.245Z,12.95
2022-10-08T08:57:13.758Z,12.87
2022-10-08T09:00:21.738Z,12.85
2022-10-08T09:03:29.096Z,12.88
2022-10-08T09:06:36.687Z,12.93
2022-10-08T09:09:44.147Z,12.89
2022-10-08T09:12:51.200Z,12.99
2022-10-08T09:15:59.122Z,13.03
2022-10-08T09:19:07.102Z,13.07
2022-10-08T09:22:14.200Z,13.14
2022-10-08T09:25:22.094Z,13.14
2022-10-08T09:28:29.749Z,13.22
2022-10-08T09:31:37.192Z,13.21
2022-10-08T09:34:45.166Z,13.21
2022-10-08T09:37:52.206Z,13.12
2022-10-08T09:40:59.974Z,13.15
2022-10-08T09:44:07.665Z,13.20
2022-10-08T09:47:14.699Z,13.40
2022-10-08T09:50:22.538Z,13.51
2022-10-08T09:53:30.063Z,13.70
2022-10-08T09:56:37.650Z,13.87
2022-10-08T09:59:44.723Z,13.83
2022-10-08T10:02:52.400Z,13.98
2022-10-08T10:06:00.052Z,13.99
2022-10-08T10:09:07.414Z,14.16
2022-10-08T10:12:15.026Z,14.53
2022-10-08T10:15:22.547Z,14.94
2022-10-08T10:18:30.048Z,14.74
2022-10-08T10:21:37.858Z,14.68
2022-10-08T10:24:45.247Z,14.71
2022-10-08T10:27:52.570Z,14.74
2022-10-08T10:31:00.363Z,14.74
2022-10-08T10:34:07.404Z,14.94
2022-10-08T10:37:14.992Z,14.93
2022-10-08T10:40:22.358Z,14.81
2022-10-08T10:43:29.444Z,14.83
2022-10-08T10:46:37.375Z,14.93
2022-10-08T10:49:44.733Z,15.13
2022-10-08T10:52:52.857Z,15.43
2022-10-08T10:56:00.878Z,15.67
2022-10-08T10:59:08.469Z,15.66
2022-10-08T11:02:16.316Z,15.45
2022-10-08T11:05:24.120Z,15.31
2022-10-08T11:08:31.110Z,15.12
2022-10-08T11:11:38.902Z,14.90
2022-10-08T11:14:46.730Z,14.87
2022-10-08T11:17:54.080Z,15.03
2022-10-08T11:21:01.556Z,15.35
2022-10-08T11:24:08.885Z,15.67
2022-10-08T11:27:17.016Z,15.79
2022-10-08T11:30:24.640Z,15.86
2022-10-08T11:33:32.059Z,15.67
2022-10-08T11:36:39.329Z,15.56
2022-10-08T11:39:47.240Z,15.64
2022-10-08T11:42:55.129Z,15.81
2022-10-08T11:46:02.301Z,16.00
2022-10-08T11:49:09.720Z,16.41
2022-10-08T11:52:17.283Z,16.63
2022-10-08T11:55:24.554Z,16.53
2022-10-08T11:58:32.107Z,16.53
2022-10-08T12:01:39.616Z,16.45
2022-10-08T12:04:47.118Z,16.37
2022-10-08T12:07:54.567Z,16.45
2022-10-08T12:11:02.088Z,16.37
2022-10-08T12:14:09.450Z,16.48
2022-10-08T12:17:17.052Z,16.70
2022-10-08T12:20:24.524Z,16.95
2022-10-08T12:23:32.064Z,17.04
2022-10-08T12:26:39.787Z,17.00
2022-10-08T12:29:47.175Z,16.89
2022-10-08T12:32:54.174Z,16.98
2022-10-08T12:36:01.816Z,16.85
2022-10-08T12:39:09.225Z,16.65
2022-10-08T12:42:16.933Z,16.55
2022-10-08T12:45:24.590Z,16.59
2022-10-08T12:48:31.671Z,16.48
2022-10-08T12:51:39.613Z,16.01
2022-10-08T12:54:47.307Z,14.93
2022-10-08T12:57:54.550Z,14.10
2022-10-08T13:01:02.220Z,13.07
2022-10-08T13:04:09.754Z,12.59
2022-10-08T13:07:17.476Z,12.41
2022-10-08T13:10:26.180Z,12.45
2022-10-08T13:13:33.586Z,12.49
2022-10-08T13:16:41.080Z,12.39
2022-10-08T13:19:49.055Z,12.38
2022-10-08T13:22:56.577Z,12.39
2022-10-08T13:26:04.161Z,12.33
2022-10-08T13:29:11.649Z,12.37
2022-10-08T13:32:19.369Z,12.37
2022-10-08T13:35:27.183Z,12.21
2022-10-08T13:38:34.713Z,12.05
2022-10-08T13:41:42.693Z,11.99
2022-10-08T13:44:50.225Z,12.01
2022-10-08T13:47:57.716Z,12.12
2022-10-08T13:51:05.605Z,12.26
2022-10-08T13:54:12.917Z,12.33
2022-10-08T13:57:20.841Z,12.48
2022-10-08T14:00:28.745Z,12.57
2022-10-08T14:03:35.994Z,12.74
2022-10-08T14:06:43.681Z,12.84
2022-10-08T14:09:51.670Z,12.87
2022-10-08T14:12:58.762Z,12.67
2022-10-08T14:16:06.725Z,12.45
2022-10-08T14:19:14.325Z,12.30
2022-10-08T14:22:21.764Z,12.20
2022-10-08T14:25:29.552Z,12.11
2022-10-08T14:28:37.073Z,11.99
2022-10-08T14:31:44.579Z,12.09
2022-10-08T14:34:52.398Z,12.26
2022-10-08T14:37:59.577Z,12.52
2022-10-08T14:41:07.039Z,12.66
2022-10-08T14:44:14.488Z,12.70
2022-10-08T14:47:22.374Z,12.79
2022-10-08T14:50:29.842Z,12.89
2022-10-08T14:53:36.943Z,13.04
2022-10-08T14:56:44.822Z,13.38
2022-10-08T14:59:52.252Z,13.37
2022-10-08T15:02:59.871Z,13.25
2022-10-08T15:06:07.637Z,13.14
2022-10-08T15:09:14.956Z,13.09
2022-10-08T15:12:22.049Z,13.11
2022-10-08T15:15:30.137Z,13.12
2022-10-08T15:18:37.199Z,13.15
2022-10-08T15:21:45.050Z,13.14
2022-10-08T15:24:52.969Z,13.02
2022-10-08T15:28:00.056Z,12.95
2022-10-08T15:31:07.568Z,12.88
2022-10-08T15:34:15.562Z,12.79
2022-10-08T15:37:22.597Z,12.77
2022-10-08T15:40:29.957Z,12.75
2022-10-08T15:43:39.492Z,12.82
2022-10-08T15:46:46.932Z,12.88
2022-10-08T15:49:54.755Z,12.89
2022-10-08T15:53:02.316Z,12.81
2022-10-08T15:56:09.767Z,12.78
2022-10-08T15:59:17.598Z,12.69
2022-10-08T16:02:24.772Z,12.57
2022-10-08T16:05:32.519Z,12.48
2022-10-08T16:08:39.842Z,12.46
2022-10-08T16:11:47.534Z,12.42
2022-10-08T16:14:55.326Z,12.34
2022-10-08T16:18:02.751Z,12.26
2022-10-08T16:21:10.724Z,12.13
2022-10-08T16:24:18.124Z,12.06
2022-10-08T16:27:25.676Z,11.99
2022-10-08T16:30:33.525Z,11.87
2022-10-08T16:33:40.597Z,11.75
2022-10-08T16:36:48.511Z,11.68
2022-10-08T16:39:56.458Z,11.59
2022-10-08T16:43:03.701Z,11.53
2022-10-08T16:46:11.969Z,11.46
2022-10-08T16:49:24.488Z,11.34
2022-10-08T16:52:21.724Z,11.24
2022-10-08T16:55:30.230Z,11.13
2022-10-08T16:58:38.633Z,11.02
2022-10-08T17:01:46.603Z,10.95
2022-10-08T17:04:54.661Z,10.84
2022-10-08T17:08:02.254Z,10.80
2022-10-08T17:11:10.100Z,10.78
2022-10-08T17:14:18.257Z,10.68
2022-10-08T17:17:25.726Z,10.62
2022-10-08T17:20:33.698Z,10.46
2022-10-08T17:23:41.449Z,10.44
2022-10-08T17:26:49.406Z,10.42
2022-10-08T17:29:57.259Z,10.42
2022-10-08T17:33:04.823Z,10.47
2022-10-08T17:36:13.278Z,10.56
2022-10-08T17:39:21.002Z,10.56
2022-10-08T17:42:28.935Z,10.52
2022-10-08T17:45:37.495Z,10.47
2022-10-08T17:48:45.220Z,10.42
2022-10-08T17:51:52.475Z,10.36
2022-10-08T17:55:00.656Z,10.25
2022-10-08T17:58:07.896Z,10.19
2022-10-08T18:01:15.645Z,10.12
2022-10-08T18:04:23.837Z,10.03
2022-10-08T18:07:31.838Z,9.99
2022-10-08T18:10:40.209Z,9.91
2022-10-08T18:13:48.725Z,9.83
2022-10-08T18:16:56.130Z,9.78
2022-10-08T18:20:04.231Z,9.67
2022-10-08T18:23:12.002Z,9.60
2022-10-08T18:26:19.411Z,9.56
2022-10-08T18:29:27.101Z,9.50
2022-10-08T18:32:34.293Z,9.40
2022-10-08T18:35:42.386Z,9.39
2022-10-08T18:38:50.265Z,9.38
2022-10-08T18:41:57.488Z,9.30
2022-10-08T18:45:05.323Z,9.25
2022-10-08T18:48:13.042Z,9.23
2022-10-08T18:51:20.375Z,9.21
2022-10-08T18:54:28.530Z,9.20
2022-10-08T18:57:36.053Z,9.18
2022-10-08T19:00:43.579Z,9.15
2022-10-08T19:03:51.478Z,9.16
2022-10-08T19:06:59.066Z,9.13
2022-10-08T19:10:06.761Z,9.13
2022-10-08T19:13:14.480Z,9.12
2022-10-08T19:16:22.313Z,9.10
2022-10-08T19:19:29.863Z,9.04
2022-10-08T19:22:37.404Z,8.99
2022-10-08T19:25:45.522Z,8.99
2022-10-08T19:28:53.290Z,8.91
2022-10-08T19:32:00.743Z,8.91
2022-10-08T19:35:08.534Z,8.90
2022-10-08T19:38:16.136Z,8.87
2022-10-08T19:41:24.307Z,8.88
2022-10-08T19:44:32.064Z,8.84
2022-10-08T19:47:39.722Z,8.79
2022-10-08T19:50:47.325Z,8.78
2022-10-08T19:53:55.398Z,8.75
2022-10-08T19:57:02.653Z,8.71
2022-10-08T20:00:10.836Z,8.65
2022-10-08T20:03:18.731Z,8.62
2022-10-08T20:06:26.169Z,8.54
2022-10-08T20:09:34.126Z,8.50
2022-10-08T20:12:42.052Z,8.40
2022-10-08T20:15:51.561Z,8.37
2022-10-08T20:18:59.639Z,8.35
2022-10-08T20:22:11.546Z,8.37
2022-10-08T20:25:08.412Z,8.37
2022-10-08T20:28:16.381Z,8.33
2022-10-08T20:31:25.322Z,8.29
2022-10-08T20:34:32.997Z,8.26
2022-10-08T20:37:41.144Z,8.25
2022-10-08T20:40:48.629Z,8.18
2022-10-08T20:43:56.221Z,8.12
2022-10-08T20:47:04.281Z,8.03
2022-10-08T20:50:11.591Z,8.02
2022-10-08T20:53:19.491Z,7.96
2022-10-08T20:56:27.208Z,7.89
2022-10-08T20:59:35.070Z,7.84
2022-10-08T21:02:42.633Z,7.79
2022-10-08T21:05:51.053Z,7.74
2022-10-08T21:08:59.492Z,7.67
2022-10-08T21:12:08.027Z,7.62
2022-10-08T21:15:15.877Z,7.53
2022-10-08T21:18:23.903Z,7.50
2022-10-08T21:21:31.245Z,7.49
2022-10-08T21:24:38.899Z,7.45
2022-10-08T21:27:46.956Z,7.40
2022-10-08T21:30:54.136Z,7.37
2022-10-08T21:34:02.077Z,7.32
2022-10-08T21:37:13.715Z,7.29
2022-10-08T21:40:10.377Z,7.29
2022-10-08T21:43:18.386Z,7.26
2022-10-08T21:46:26.141Z,7.19
2022-10-08T21:49:33.738Z,7.12
2022-10-08T21:52:41.811Z,7.09
2022-10-08T21:55:49.378Z,7.09
2022-10-08T21:58:56.971Z,7.07
2022-10-08T22:02:04.680Z,7.04
2022-10-08T22:05:12.278Z,7.01
2022-10-08T22:08:19.791Z,7.01
2022-10-08T22:11:27.686Z,6.95
2022-10-08T22:14:35.286Z,6.94
2022-10-08T22:17:42.913Z,6.95
2022-10-08T22:20:50.875Z,6.94
2022-10-08T22:23:59.107Z,6.87
2022-10-08T22:27:06.880Z,6.81
2022-10-08T22:30:14.596Z,6.76
2022-10-08T22:33:22.326Z,6.72
2022-10-08T22:36:29.977Z,6.69
2022-10-08T22:39:37.749Z,6.73
2022-10-08T22:42:45.642Z,6.76
2022-10-08T22:45:53.268Z,6.77
2022-10-08T22:49:01.743Z,6.77
2022-10-08T22:52:09.639Z,6.76
2022-10-08T22:55:16.960Z,6.72
2022-10-08T22:58:25.084Z,6.69
2022-10-08T23:01:32.846Z,6.63
2022-10-08T23:04:40.203Z,6.63
2022-10-08T23:07:48.230Z,6.62
2022-10-08T23:10:55.476Z,6.61
2022-10-08T23:14:03.743Z,6.62
2022-10-08T23:17:12.131Z,6.54
2022-10-08T23:20:19.486Z,6.46
2022-10-08T23:23:27.624Z,6.44
2022-10-08T23:26:35.333Z,6.38
2022-10-08T23:29:43.025Z,6.32
2022-10-08T23:32:51.439Z,6.29
2022-10-08T23:35:59.118Z,6.25
2022-10-08T23:39:06.864Z,6.25
2022-10-08T23:42:14.373Z,6.25
2022-10-08T23:45:22.098Z,6.21
2022-10-08T23:48:29.508Z,6.16
2022-10-08T23:51:37.349Z,6.19
2022-10-08T23:54:44.679Z,6.21
2022-10-08T23:57:52.380Z,6.19
